Time;durP1;ratioP1;P1;durP2;ratioP2;P2;SDS_P1;SDS_P2;PMS_P1;PMS_P2;Temp;Humidity;BMP_temperature;BMP_pressure;BME280_temperature;BME280_humidity;BME280_pressure;Samples;Min_cycle;Max_cycle;Signal;HPM_P1;HPM_P2
2023/03/02 00:02:00;;;;;;;255.02;37.22;;;;;;;0.57;100.00;102863.03;5003793;28;20600;-45
2023/03/02 00:04:45;;;;;;;123.68;34.75;;;;;;;0.59;100.00;102856.09;5011281;28;20196;-45
2023/03/02 00:07:14;;;;;;;155.20;36.03;;;;;;;0.61;100.00;102853.47;4997039;28;20647;-45
2023/03/02 00:09:41;;;;;;;137.75;33.47;;;;;;;0.61;100.00;102854.41;5011578;28;20195;-43
2023/03/02 00:12:08;;;;;;;92.38;34.00;;;;;;;0.66;100.00;102861.56;4998411;28;20198;-45
2023/03/02 00:14:33;;;;;;;95.00;34.33;;;;;;;0.70;100.00;102848.53;4995524;28;20188;-46
2023/03/02 00:16:58;;;;;;;288.85;39.33;;;;;;;0.54;100.00;102868.19;5009003;28;20179;-44
2023/03/02 00:19:24;;;;;;;81.82;31.77;;;;;;;0.58;100.00;102862.19;4996586;28;20197;-46
2023/03/02 00:21:49;;;;;;;132.68;33.15;;;;;;;0.52;100.00;102861.06;4991059;28;21026;-44
2023/03/02 00:24:15;;;;;;;139.80;33.97;;;;;;;0.58;100.00;102859.53;4990995;28;20239;-47
2023/03/02 00:26:41;;;;;;;208.35;36.30;;;;;;;0.59;100.00;102860.44;4991529;28;20178;-49
2023/03/02 00:29:06;;;;;;;129.68;35.40;;;;;;;0.61;100.00;102857.03;4989823;28;20179;-43
2023/03/02 00:31:32;;;;;;;98.82;34.05;;;;;;;0.68;100.00;102854.59;4990624;28;20193;-44
2023/03/02 00:33:57;;;;;;;164.63;34.67;;;;;;;0.58;100.00;102850.75;4989894;28;20184;-44
2023/03/02 00:36:23;;;;;;;198.50;34.50;;;;;;;0.51;100.00;102839.06;4989720;28;20181;-50
2023/03/02 00:38:53;;;;;;;363.77;36.90;;;;;;;0.47;100.00;102834.53;4989801;28;20189;-49
2023/03/02 00:41:22;;;;;;;189.65;34.65;;;;;;;0.48;100.00;102841.63;4991264;28;20181;-45
2023/03/02 00:43:49;;;;;;;92.60;31.58;;;;;;;0.59;100.00;102824.44;4991186;28;20204;-46
2023/03/02 00:46:21;;;;;;;123.60;29.25;;;;;;;0.55;100.00;102834.81;4991373;28;20174;-44
2023/03/02 00:48:47;;;;;;;83.82;29.92;;;;;;;0.53;100.00;102825.94;4991386;28;20590;-45
2023/03/02 00:51:13;;;;;;;100.50;31.45;;;;;;;0.51;100.00;102822.38;4989957;28;20690;-45
2023/03/02 00:53:40;;;;;;;100.05;29.48;;;;;;;0.44;100.00;102836.16;5006310;28;20601;-46
2023/03/02 00:56:06;;;;;;;86.68;26.98;;;;;;;0.41;100.00;102826.41;4993591;28;20592;-50
2023/03/02 00:58:36;;;;;;;64.32;24.42;;;;;;;0.42;100.00;102822.94;4998728;28;20268;-50
2023/03/02 01:01:08;;;;;;;69.43;25.30;;;;;;;0.40;100.00;102828.16;5000347;28;20880;-49
2023/03/02 01:03:37;;;;;;;98.40;25.63;;;;;;;0.27;100.00;102819.75;4998448;28;20627;-48
2023/03/02 01:06:03;;;;;;;81.57;24.77;;;;;;;0.32;100.00;102826.97;4997828;28;20197;-50
2023/03/02 01:08:29;;;;;;;81.25;27.05;;;;;;;0.39;100.00;102826.38;4993145;28;20573;-49
2023/03/02 01:10:55;;;;;;;93.85;26.77;;;;;;;0.36;100.00;102820.06;4997619;28;20193;-49
2023/03/02 01:13:21;;;;;;;113.63;28.55;;;;;;;0.39;100.00;102822.81;5004121;28;20640;-49
2023/03/02 01:15:46;;;;;;;99.13;30.05;;;;;;;0.43;100.00;102813.28;4997296;28;20177;-47
2023/03/02 01:18:12;;;;;;;87.22;28.70;;;;;;;0.47;100.00;102813.44;4997862;28;20195;-48
2023/03/02 01:20:38;;;;;;;95.45;29.17;;;;;;;0.44;100.00;102815.97;5005250;28;20243;-48
2023/03/02 01:23:03;;;;;;;109.85;30.83;;;;;;;0.45;100.00;102807.22;4995923;28;20340;-48
2023/03/02 01:25:29;;;;;;;106.40;28.33;;;;;;;0.50;100.00;102810.88;4998687;28;20202;-47
2023/03/02 01:27:54;;;;;;;99.45;27.75;;;;;;;0.41;100.00;102815.84;4999774;28;20189;-49
2023/03/02 01:30:20;;;;;;;86.72;29.50;;;;;;;0.47;100.00;102810.81;4998905;28;20201;-48
2023/03/02 01:32:45;;;;;;;173.63;30.52;;;;;;;0.41;100.00;102805.31;4994546;28;20208;-47
2023/03/02 01:35:12;;;;;;;100.20;27.73;;;;;;;0.45;100.00;102803.69;5004566;28;20272;-46
2023/03/02 01:37:38;;;;;;;102.75;28.50;;;;;;;0.39;100.00;102802.63;4994570;28;20765;-46
2023/03/02 01:43:44;;;;;;;77.00;22.98;;;;;;;0.40;100.00;102792.97;4996643;28;20266;-47
2023/03/02 01:46:20;;;;;;;94.57;26.08;;;;;;;0.36;100.00;102805.16;5005533;28;20213;-46
2023/03/02 01:49:00;;;;;;;96.18;23.25;;;;;;;0.39;100.00;102797.38;4995683;28;20189;-44
2023/03/02 01:51:45;;;;;;;104.15;23.33;;;;;;;0.45;100.00;102801.03;4988759;28;20209;-45
2023/03/02 01:54:16;;;;;;;98.60;23.70;;;;;;;0.45;100.00;102787.84;5006350;28;20177;-47
2023/03/02 01:56:44;;;;;;;90.82;22.58;;;;;;;0.38;100.00;102786.75;5001155;28;20299;-47
2023/03/02 01:59:17;;;;;;;101.45;23.88;;;;;;;0.36;100.00;102789.31;5005298;28;20185;-45
2023/03/02 02:01:46;;;;;;;77.90;22.33;;;;;;;0.33;100.00;102788.34;5003604;28;20211;-48
2023/03/02 02:04:13;;;;;;;77.63;22.00;;;;;;;0.32;100.00;102787.41;4993986;28;20201;-45
2023/03/02 02:06:47;;;;;;;70.28;22.27;;;;;;;0.31;100.00;102788.28;5006376;28;20211;-47
2023/03/02 02:09:15;;;;;;;93.80;22.00;;;;;;;0.30;100.00;102791.72;5002373;28;20686;-49
2023/03/02 02:11:43;;;;;;;82.07;21.38;;;;;;;0.37;100.00;102800.75;4998055;28;20205;-47
2023/03/02 02:14:09;;;;;;;125.05;24.80;;;;;;;0.37;100.00;102790.22;5002508;28;20326;-46
2023/03/02 02:16:36;;;;;;;81.75;23.15;;;;;;;0.38;100.00;102795.53;4998092;28;20267;-46
2023/03/02 02:19:11;;;;;;;79.72;20.52;;;;;;;0.43;100.00;102797.47;5005173;28;20192;-47
2023/03/02 02:21:37;;;;;;;72.20;17.88;;;;;;;0.36;100.00;102791.06;4997593;28;20311;-46
2023/03/02 02:24:08;;;;;;;55.80;17.67;;;;;;;0.36;100.00;102783.16;4998769;28;20296;-47
2023/03/02 02:26:52;;;;;;;84.40;17.15;;;;;;;0.39;100.00;102775.34;4997186;28;20638;-47
2023/03/02 02:29:26;;;;;;;75.57;16.85;;;;;;;0.40;100.00;102785.06;4992803;28;20185;-46
2023/03/02 02:32:01;;;;;;;60.33;16.75;;;;;;;0.41;100.00;102771.03;4994949;28;20207;-47
2023/03/02 02:34:31;;;;;;;65.90;17.52;;;;;;;0.37;100.00;102775.31;4997702;28;20192;-46
2023/03/02 02:37:05;;;;;;;53.45;16.30;;;;;;;0.30;100.00;102775.91;4998157;28;20185;-46
2023/03/02 02:39:36;;;;;;;55.60;16.00;;;;;;;0.31;100.00;102776.84;4995279;28;20200;-47
2023/03/02 02:42:06;;;;;;;102.45;18.58;;;;;;;0.28;100.00;102771.44;5001364;28;20235;-46
2023/03/02 02:44:32;;;;;;;52.17;15.18;;;;;;;0.24;100.00;102759.00;4997914;28;20664;-46
2023/03/02 02:46:58;;;;;;;43.97;14.07;;;;;;;0.36;100.00;102768.22;5005739;28;20267;-47
2023/03/02 02:49:35;;;;;;;57.30;15.85;;;;;;;0.35;100.00;102763.81;4999392;28;20188;-48
2023/03/02 02:52:02;;;;;;;50.75;16.73;;;;;;;0.38;100.00;102757.75;5004834;28;20213;-49
2023/03/02 02:54:30;;;;;;;53.40;15.93;;;;;;;0.31;100.00;102767.19;4998698;28;20192;-48
2023/03/02 02:56:58;;;;;;;70.05;17.08;;;;;;;0.37;100.00;102753.28;5005044;28;20210;-47
2023/03/02 02:59:32;;;;;;;65.22;16.50;;;;;;;0.36;100.00;102770.88;4994428;28;20742;-46
2023/03/02 03:01:59;;;;;;;103.90;17.25;;;;;;;0.36;100.00;102762.06;5002075;28;20223;-48
2023/03/02 03:04:29;;;;;;;61.92;14.95;;;;;;;0.35;100.00;102762.91;5003746;28;20262;-47
2023/03/02 03:07:03;;;;;;;57.55;14.35;;;;;;;0.25;100.00;102761.69;5000235;28;20228;-47
2023/03/02 03:09:30;;;;;;;38.70;12.75;;;;;;;0.24;100.00;102764.25;5004391;28;20687;-48
2023/03/02 03:12:00;;;;;;;52.53;14.15;;;;;;;0.15;100.00;102754.28;5002494;28;20556;-47
2023/03/02 03:14:33;;;;;;;52.22;12.65;;;;;;;0.15;100.00;102751.66;5004332;28;20196;-46
2023/03/02 03:16:59;;;;;;;48.22;13.55;;;;;;;0.23;100.00;102757.22;5002014;28;20837;-46
2023/03/02 03:19:30;;;;;;;42.97;12.52;;;;;;;0.26;100.00;102741.47;5002002;28;20180;-47
2023/03/02 03:22:00;;;;;;;89.43;15.20;;;;;;;0.20;100.00;102744.81;5004212;28;20232;-46
2023/03/02 03:24:32;;;;;;;51.88;14.02;;;;;;;0.22;100.00;102744.84;5011223;28;20712;-44
2023/03/02 03:27:00;;;;;;;43.22;12.85;;;;;;;0.17;100.00;102750.84;5002942;28;20220;-44
2023/03/02 03:29:27;;;;;;;39.88;13.18;;;;;;;0.24;100.00;102740.53;4999247;28;20676;-44
2023/03/02 03:31:58;;;;;;;53.88;14.55;;;;;;;0.21;100.00;102741.31;5009434;28;20422;-45
2023/03/02 03:34:25;;;;;;;54.30;15.85;;;;;;;0.23;100.00;102739.66;5003752;28;20205;-42
2023/03/02 03:36:51;;;;;;;50.10;14.60;;;;;;;0.26;100.00;102747.66;4995013;28;20283;-44
2023/03/02 03:39:17;;;;;;;48.97;15.50;;;;;;;0.37;100.00;102741.03;4990864;28;20240;-44
2023/03/02 03:41:43;;;;;;;49.85;15.85;;;;;;;0.29;100.00;102747.78;4995847;28;20217;-43
2023/03/02 03:44:10;;;;;;;43.47;16.48;;;;;;;0.24;100.00;102752.00;5010619;28;20213;-44
2023/03/02 03:46:37;;;;;;;33.55;13.88;;;;;;;0.34;100.00;102743.53;4995632;28;20582;-44
2023/03/02 03:49:03;;;;;;;41.83;15.93;;;;;;;0.32;100.00;102753.13;5002822;28;20177;-43
2023/03/02 03:51:34;;;;;;;36.95;15.60;;;;;;;0.36;100.00;102755.03;5000123;28;20656;-43
2023/03/02 03:54:01;;;;;;;42.42;15.75;;;;;;;0.37;100.00;102751.59;5007837;28;20189;-43
2023/03/02 03:56:35;;;;;;;46.75;16.75;;;;;;;0.33;100.00;102756.69;4992196;28;20246;-45
2023/03/02 03:59:07;;;;;;;40.20;18.08;;;;;;;0.35;100.00;102761.19;4994736;28;20188;-43
2023/03/02 04:01:43;;;;;;;35.20;15.68;;;;;;;0.33;100.00;102762.84;5006500;28;20740;-44
2023/03/02 04:04:15;;;;;;;42.40;17.80;;;;;;;0.29;100.00;102754.78;4992809;28;20204;-44
2023/03/02 04:06:42;;;;;;;60.45;16.95;;;;;;;0.19;100.00;102761.47;4998214;28;20188;-41
2023/03/02 04:09:08;;;;;;;54.47;18.20;;;;;;;0.23;100.00;102750.19;4998543;28;20562;-43
2023/03/02 04:11:37;;;;;;;66.22;18.95;;;;;;;0.21;100.00;102749.25;5007215;28;20604;-43
2023/03/02 04:14:05;;;;;;;58.58;17.85;;;;;;;0.30;100.00;102752.19;5002205;28;20219;-44
2023/03/02 04:16:31;;;;;;;64.80;19.50;;;;;;;0.31;100.00;102740.81;5002613;28;20696;-42
2023/03/02 04:18:58;;;;;;;48.42;15.60;;;;;;;0.22;100.00;102743.13;4995147;28;20173;-42
2023/03/02 04:21:24;;;;;;;61.13;17.65;;;;;;;0.20;100.00;102742.19;4998327;28;20581;-43
2023/03/02 04:23:51;;;;;;;58.33;14.93;;;;;;;0.18;100.00;102741.22;5004669;28;20209;-43
2023/03/02 04:26:17;;;;;;;65.28;13.70;;;;;;;0.10;100.00;102751.50;4999677;28;20180;-42
2023/03/02 04:28:42;;;;;;;51.75;14.63;;;;;;;0.12;100.00;102741.91;5006782;28;20186;-42
2023/03/02 04:31:08;;;;;;;75.38;15.88;;;;;;;0.17;100.00;102736.78;5003931;28;20225;-43
2023/03/02 04:33:34;;;;;;;84.70;17.38;;;;;;;0.14;100.00;102745.50;5004280;28;20180;-44
2023/03/02 04:35:59;;;;;;;65.40;15.35;;;;;;;0.13;100.00;102742.78;5001121;28;20177;-46
2023/03/02 04:38:28;;;;;;;70.90;15.60;;;;;;;0.26;100.00;102749.41;5005508;28;20678;-45
2023/03/02 04:40:57;;;;;;;51.42;15.50;;;;;;;0.20;100.00;102750.97;5002629;28;20180;-45
2023/03/02 04:43:24;;;;;;;40.72;14.25;;;;;;;0.22;100.00;102739.59;4997659;28;20216;-48
2023/03/02 04:45:51;;;;;;;55.72;16.35;;;;;;;0.28;100.00;102742.44;4996516;28;20185;-47
2023/03/02 04:48:17;;;;;;;60.08;16.33;;;;;;;0.27;100.00;102744.19;4994926;28;20199;-45
2023/03/02 04:50:43;;;;;;;97.65;17.10;;;;;;;0.26;100.00;102746.75;5003519;28;20586;-46
2023/03/02 04:53:10;;;;;;;107.50;16.45;;;;;;;0.25;100.00;102740.59;4992336;28;20176;-47
2023/03/02 04:55:37;;;;;;;77.93;16.95;;;;;;;0.33;100.00;102738.25;5001131;28;20184;-45
2023/03/02 04:58:03;;;;;;;85.10;16.10;;;;;;;0.19;100.00;102745.66;4995685;28;20193;-45
2023/03/02 05:00:32;;;;;;;65.82;15.73;;;;;;;0.18;100.00;102744.75;4997693;28;20220;-46
2023/03/02 05:02:59;;;;;;;98.55;15.85;;;;;;;0.09;100.00;102754.97;5002359;28;20554;-48
2023/03/02 05:05:25;;;;;;;66.45;13.88;;;;;;;0.12;100.00;102747.16;5002059;28;20531;-47
2023/03/02 05:07:51;;;;;;;143.15;17.23;;;;;;;0.03;100.00;102744.22;5003727;28;20271;-47
2023/03/02 05:10:18;;;;;;;138.85;17.45;;;;;;;0.07;100.00;102732.94;4998673;28;21084;-46
2023/03/02 05:15:42;;;;;;;179.68;16.95;;;;;;;0.15;100.00;102735.84;4970417;28;20215;-46
2023/03/02 05:18:10;;;;;;;171.63;19.27;;;;;;;0.09;100.00;102732.97;4999626;28;20214;-45
2023/03/02 05:20:35;;;;;;;75.85;14.35;;;;;;;0.08;100.00;102736.47;4997450;28;20193;-47
2023/03/02 05:23:04;;;;;;;124.90;14.88;;;;;;;0.08;100.00;102734.72;4997495;28;20209;-47
2023/03/02 05:25:32;;;;;;;59.47;12.35;;;;;;;0.18;100.00;102728.94;4994204;28;20707;-45
2023/03/02 05:27:58;;;;;;;233.00;18.27;;;;;;;-0.02;100.00;102730.88;5005668;28;20216;-47
2023/03/02 05:30:24;;;;;;;115.32;14.75;;;;;;;0.07;100.00;102718.88;4997480;28;20212;-45
2023/03/02 05:32:51;;;;;;;118.80;16.08;;;;;;;0.19;100.00;102722.81;4994875;28;20603;-45
2023/03/02 05:35:17;;;;;;;226.20;18.23;;;;;;;0.13;100.00;102716.44;4995998;28;20192;-45
2023/03/02 05:37:43;;;;;;;184.40;18.10;;;;;;;0.13;100.00;102711.16;4996660;28;20796;-47
2023/03/02 05:40:13;;;;;;;152.23;17.73;;;;;;;0.12;100.00;102719.94;4996836;28;20194;-46
2023/03/02 05:42:39;;;;;;;46.97;12.70;;;;;;;0.23;100.00;102721.19;5003383;28;20221;-47
2023/03/02 05:45:07;;;;;;;41.05;13.90;;;;;;;0.34;100.00;102717.19;4992115;28;20189;-48
2023/03/02 05:47:32;;;;;;;36.30;12.02;;;;;;;0.43;100.00;102718.34;4992988;28;20275;-47
2023/03/02 05:49:58;;;;;;;75.93;16.02;;;;;;;0.36;100.00;102717.25;4999170;28;20287;-48
2023/03/02 05:52:24;;;;;;;38.97;12.52;;;;;;;0.45;100.00;102712.28;4998290;28;20598;-48
2023/03/02 05:54:49;;;;;;;104.13;16.52;;;;;;;0.40;100.00;102709.50;4995624;28;20193;-47
2023/03/02 05:57:15;;;;;;;130.77;17.02;;;;;;;0.33;100.00;102714.50;4998697;28;20239;-48
2023/03/02 05:59:40;;;;;;;136.90;17.25;;;;;;;0.38;100.00;102711.16;5001311;28;20181;-48
2023/03/02 06:02:06;;;;;;;147.60;16.08;;;;;;;0.38;100.00;102716.44;4996749;28;20209;-46
2023/03/02 06:04:31;;;;;;;88.00;16.33;;;;;;;0.34;100.00;102714.53;4999204;28;20205;-48
2023/03/02 06:06:57;;;;;;;150.65;17.08;;;;;;;0.27;100.00;102716.94;4998728;28;20255;-49
2023/03/02 06:09:22;;;;;;;51.50;13.93;;;;;;;0.36;100.00;102712.84;4993401;28;20632;-47
2023/03/02 06:11:48;;;;;;;91.35;16.17;;;;;;;0.36;100.00;102718.13;5002022;28;20193;-48
2023/03/02 06:14:14;;;;;;;191.82;19.63;;;;;;;0.29;100.00;102709.97;5002738;28;20285;-48
2023/03/02 06:16:39;;;;;;;65.00;16.20;;;;;;;0.38;100.00;102723.47;4997891;28;20176;-48
2023/03/02 06:19:05;;;;;;;172.73;19.38;;;;;;;0.30;100.00;102710.00;4997914;28;20255;-47
2023/03/02 06:21:31;;;;;;;122.72;18.70;;;;;;;0.34;100.00;102719.81;5001803;28;20193;-48
2023/03/02 06:23:56;;;;;;;146.50;18.90;;;;;;;0.37;100.00;102717.31;5002965;28;20250;-48
2023/03/02 06:26:22;;;;;;;136.48;18.90;;;;;;;0.43;100.00;102723.63;4998844;28;20196;-49
2023/03/02 06:28:47;;;;;;;178.90;19.05;;;;;;;0.30;100.00;102722.31;5002206;28;20293;-48
2023/03/02 06:31:13;;;;;;;362.20;25.38;;;;;;;0.33;100.00;102717.16;5001729;28;20621;-48
2023/03/02 06:33:38;;;;;;;66.53;16.75;;;;;;;0.44;100.00;102721.03;5000907;28;20191;-48
2023/03/02 06:36:04;;;;;;;154.55;18.95;;;;;;;0.49;100.00;102713.28;5007008;28;20181;-48
2023/03/02 06:38:30;;;;;;;187.93;20.25;;;;;;;0.40;100.00;102727.94;5001107;28;20181;-47
2023/03/02 06:40:55;;;;;;;128.60;17.00;;;;;;;0.40;100.00;102722.66;5005572;28;20271;-48
2023/03/02 06:43:21;;;;;;;43.05;13.00;;;;;;;0.36;100.00;102718.13;5003058;28;20213;-49
2023/03/02 06:45:46;;;;;;;55.60;14.65;;;;;;;0.45;100.00;102721.94;5000562;28;20312;-47
2023/03/02 06:48:12;;;;;;;77.85;15.73;;;;;;;0.54;100.00;102719.59;4998257;28;20263;-51
2023/03/02 06:50:37;;;;;;;118.50;15.45;;;;;;;0.48;100.00;102719.38;5001877;28;20200;-49
2023/03/02 06:53:03;;;;;;;89.63;15.73;;;;;;;0.52;100.00;102730.09;5002833;28;20629;-47
2023/03/02 06:55:29;;;;;;;146.65;17.88;;;;;;;0.45;100.00;102737.75;5002377;28;20226;-47
2023/03/02 06:57:54;;;;;;;133.30;17.30;;;;;;;0.47;100.00;102728.16;5004742;28;20532;-48
2023/03/02 07:00:26;;;;;;;148.95;16.58;;;;;;;0.41;100.00;102727.09;5003373;28;20192;-47
2023/03/02 07:02:53;;;;;;;121.97;15.00;;;;;;;0.41;100.00;102727.09;4999064;28;20213;-43
2023/03/02 07:05:19;;;;;;;99.72;16.38;;;;;;;0.52;100.00;102745.03;5000259;28;20180;-43
2023/03/02 07:07:45;;;;;;;54.63;14.48;;;;;;;0.63;100.00;102738.38;5005571;28;20185;-42
2023/03/02 07:10:12;;;;;;;144.30;15.82;;;;;;;0.56;100.00;102728.47;5007691;28;20201;-41
2023/03/02 07:12:41;;;;;;;188.13;17.70;;;;;;;0.53;100.00;102725.72;5001104;28;20197;-43
2023/03/02 07:15:11;;;;;;;150.57;16.60;;;;;;;0.57;100.00;102725.88;5002892;28;20671;-43
2023/03/02 07:17:38;;;;;;;36.05;13.15;;;;;;;0.70;100.00;102721.91;5001276;28;20185;-42
2023/03/02 07:20:07;;;;;;;58.58;14.35;;;;;;;0.77;100.00;102728.28;4998018;28;20193;-46
2023/03/02 07:22:33;;;;;;;32.25;12.07;;;;;;;0.84;100.00;102719.72;4996639;28;20203;-43
2023/03/02 07:24:58;;;;;;;136.70;21.33;;;;;;;0.59;100.00;102726.84;5003807;28;20185;-43
2023/03/02 07:27:24;;;;;;;131.70;16.30;;;;;;;0.66;100.00;102722.66;5007840;28;20258;-42
2023/03/02 07:29:49;;;;;;;84.32;14.23;;;;;;;0.56;100.00;102720.56;5000686;28;20188;-43
2023/03/02 07:32:15;;;;;;;124.57;16.38;;;;;;;0.66;100.00;102717.38;4995140;28;20753;-42
2023/03/02 07:34:40;;;;;;;1260.30;124.43;;;;;;;0.67;100.00;102720.91;4998909;28;20196;-42
2023/03/02 07:37:06;;;;;;;135.50;18.45;;;;;;;0.65;100.00;102720.84;4997978;28;20184;-42
2023/03/02 07:39:31;;;;;;;141.77;15.98;;;;;;;0.50;100.00;102734.41;5001356;28;20177;-43
2023/03/02 07:41:59;;;;;;;99.28;14.05;;;;;;;0.59;100.00;102725.91;4993271;28;20205;-46
2023/03/02 07:44:26;;;;;;;62.72;14.27;;;;;;;0.68;100.00;102720.03;5000881;28;20208;-43
2023/03/02 07:46:52;;;;;;;64.65;13.07;;;;;;;0.58;100.00;102722.38;4992801;28;20182;-43
2023/03/02 07:49:17;;;;;;;37.13;12.35;;;;;;;0.80;100.00;102723.09;4995387;28;20185;-44
2023/03/02 07:51:43;;;;;;;39.47;12.68;;;;;;;0.92;100.00;102719.94;5012072;28;20242;-47
2023/03/02 07:54:08;;;;;;;53.75;14.98;;;;;;;0.86;100.00;102720.66;5012103;28;20255;-44
2023/03/02 07:56:34;;;;;;;91.32;15.13;;;;;;;0.89;100.00;102717.22;4997375;28;20170;-43
2023/03/02 07:58:59;;;;;;;63.13;13.85;;;;;;;0.84;100.00;102713.56;4992399;28;20211;-46
2023/03/02 08:01:25;;;;;;;109.13;16.52;;;;;;;0.91;100.00;102720.81;4991785;28;20200;-48
2023/03/02 08:03:51;;;;;;;37.15;13.25;;;;;;;0.99;100.00;102721.97;4999962;28;20232;-44
2023/03/02 08:06:16;;;;;;;63.35;13.65;;;;;;;1.01;100.00;102725.53;4996784;28;20822;-44
2023/03/02 08:08:42;;;;;;;55.45;14.35;;;;;;;0.92;100.00;102734.06;4995237;28;20268;-47
2023/03/02 08:11:13;;;;;;;86.22;14.52;;;;;;;0.68;100.00;102730.59;5001692;28;20294;-47
2023/03/02 08:13:39;;;;;;;48.22;14.93;;;;;;;0.96;100.00;102742.94;4992001;28;20161;-44
2023/03/02 08:16:07;;;;;;;35.38;13.40;;;;;;;0.97;100.00;102743.00;4994235;28;20288;-46
2023/03/02 08:18:33;;;;;;;57.28;14.55;;;;;;;0.96;100.00;102740.31;5000782;28;20276;-48
2023/03/02 08:20:59;;;;;;;49.60;14.98;;;;;;;0.70;100.00;102736.81;5003712;28;20242;-48
2023/03/02 08:23:25;;;;;;;44.00;12.65;;;;;;;0.74;100.00;102752.81;4999706;28;20194;-46
2023/03/02 08:25:52;;;;;;;40.70;14.90;;;;;;;0.76;100.00;102748.47;5000516;28;20613;-49
2023/03/02 08:28:18;;;;;;;44.20;14.98;;;;;;;0.69;100.00;102751.75;5002348;28;20316;-47
2023/03/02 08:30:44;;;;;;;47.60;14.90;;;;;;;0.75;100.00;102757.25;5007535;28;20586;-45
2023/03/02 08:33:09;;;;;;;34.80;12.50;;;;;;;0.66;100.00;102754.31;4997672;28;20288;-48
2023/03/02 08:35:35;;;;;;;40.90;13.68;;;;;;;0.95;100.00;102747.34;4996964;28;20188;-47
2023/03/02 08:38:00;;;;;;;30.90;12.30;;;;;;;1.09;100.00;102747.78;4997275;28;20188;-49
2023/03/02 08:40:26;;;;;;;37.72;13.23;;;;;;;1.16;100.00;102754.13;4994901;28;20208;-46
2023/03/02 08:42:56;;;;;;;60.40;15.85;;;;;;;1.10;100.00;102748.69;4992791;28;20220;-46
2023/03/02 08:45:23;;;;;;;39.65;15.02;;;;;;;1.13;100.00;102743.50;4993486;28;20186;-47
2023/03/02 08:47:48;;;;;;;47.83;15.77;;;;;;;1.05;100.00;102742.34;4993421;28;20217;-47
2023/03/02 08:50:14;;;;;;;50.88;15.57;;;;;;;1.02;100.00;102748.44;4992625;28;20255;-46
2023/03/02 08:52:39;;;;;;;51.90;16.77;;;;;;;0.94;100.00;102747.28;5003944;28;20208;-46
2023/03/02 08:55:06;;;;;;;50.25;16.10;;;;;;;0.88;100.00;102755.03;4998728;28;20184;-47
2023/03/02 08:57:33;;;;;;;54.15;17.55;;;;;;;0.90;100.00;102732.22;4995990;28;20259;-48
2023/03/02 08:59:59;;;;;;;51.47;16.83;;;;;;;1.07;100.00;102744.19;4994016;28;20280;-46
2023/03/02 09:02:24;;;;;;;51.10;16.83;;;;;;;0.99;100.00;102729.88;4998228;28;20692;-46
2023/03/02 09:04:50;;;;;;;49.90;15.80;;;;;;;0.93;100.00;102732.31;4999081;28;20220;-46
2023/03/02 09:07:16;;;;;;;57.80;17.38;;;;;;;0.96;100.00;102729.75;4997166;28;20180;-47
2023/03/02 09:09:42;;;;;;;53.00;16.85;;;;;;;1.02;100.00;102722.03;5001304;28;20187;-47
2023/03/02 09:12:08;;;;;;;51.42;17.83;;;;;;;1.08;100.00;102716.97;5001491;28;20208;-46
2023/03/02 09:14:33;;;;;;;49.05;17.80;;;;;;;1.22;100.00;102720.94;4999705;28;20173;-46
2023/03/02 09:16:59;;;;;;;47.05;16.40;;;;;;;1.33;100.00;102728.25;5000505;28;20181;-49
2023/03/02 09:19:25;;;;;;;45.97;16.77;;;;;;;1.44;100.00;102726.84;4996632;28;20679;-49
2023/03/02 09:21:50;;;;;;;45.70;17.63;;;;;;;1.40;100.00;102717.03;5006133;28;20220;-47
2023/03/02 09:24:16;;;;;;;39.97;16.50;;;;;;;1.31;100.00;102724.69;4999036;28;20213;-49
2023/03/02 09:26:42;;;;;;;44.65;17.45;;;;;;;1.38;100.00;102724.94;4993827;28;20330;-47
2023/03/02 09:29:07;;;;;;;42.10;16.95;;;;;;;1.12;100.00;102707.41;4998428;28;20186;-48
2023/03/02 09:31:33;;;;;;;38.33;15.63;;;;;;;1.08;100.00;102705.50;5001361;28;20321;-47
2023/03/02 09:33:59;;;;;;;40.90;16.17;;;;;;;1.20;100.00;102712.06;4996083;28;20200;-46
2023/03/02 09:36:26;;;;;;;32.10;15.75;;;;;;;1.20;100.00;102709.44;5000023;28;20176;-49
2023/03/02 09:38:52;;;;;;;35.08;15.73;;;;;;;1.20;100.00;102706.78;4998326;28;20193;-46
2023/03/02 09:41:17;;;;;;;36.15;15.88;;;;;;;1.23;100.00;102709.50;5001562;28;20204;-45
2023/03/02 09:44:01;;;;;;;35.45;15.32;;;;;;;1.20;100.00;102704.16;4994955;28;20307;-48
2023/03/02 09:46:48;;;;;;;38.05;15.38;;;;;;;1.17;100.00;102701.41;4999673;28;20260;-48
2023/03/02 09:49:54;;;;;;;36.28;15.95;;;;;;;1.24;100.00;102707.75;4994713;28;20189;-49
2023/03/02 09:52:34;;;;;;;33.65;14.90;;;;;;;1.36;100.00;102707.25;5004487;28;20212;-49
2023/03/02 09:55:14;;;;;;;32.20;15.30;;;;;;;1.35;100.00;102708.09;4998819;28;20647;-48
2023/03/02 09:57:40;;;;;;;33.47;14.63;;;;;;;1.27;100.00;102704.31;4998472;28;20185;-48
2023/03/02 10:00:28;;;;;;;24.88;13.93;;;;;;;1.41;100.00;102705.63;4995887;28;20213;-48
2023/03/02 10:03:05;;;;;;;25.17;14.35;;;;;;;1.45;100.00;102712.81;4994689;28;20221;-48
2023/03/02 10:05:52;;;;;;;29.55;15.52;;;;;;;1.54;100.00;102707.78;4997960;28;20595;-48
2023/03/02 10:08:27;;;;;;;27.00;15.48;;;;;;;1.64;100.00;102708.97;5005607;28;20519;-47
2023/03/02 10:11:04;;;;;;;32.05;14.85;;;;;;;1.53;100.00;102713.94;4991884;28;20218;-48
2023/03/02 10:13:45;;;;;;;25.88;15.60;;;;;;;1.57;100.00;102710.50;4994383;28;20181;-49
2023/03/02 10:16:35;;;;;;;28.95;15.20;;;;;;;1.40;100.00;102715.31;4998350;28;20653;-48
2023/03/02 10:19:03;;;;;;;32.58;14.98;;;;;;;1.48;100.00;102707.59;4997242;28;20686;-49
2023/03/02 10:21:40;;;;;;;25.02;14.20;;;;;;;1.64;100.00;102703.69;5003840;28;20212;-48
2023/03/02 10:24:27;;;;;;;27.17;14.25;;;;;;;1.61;100.00;102700.94;4998582;28;20217;-48
2023/03/02 10:26:57;;;;;;;21.58;13.52;;;;;;;1.69;100.00;102691.47;4996417;28;20280;-49
2023/03/02 10:29:45;;;;;;;23.70;13.23;;;;;;;1.72;100.00;102694.19;4995595;28;20185;-48
2023/03/02 10:32:26;;;;;;;25.73;14.45;;;;;;;1.88;100.00;102695.53;4997506;28;20726;-49
2023/03/02 10:34:52;;;;;;;18.52;12.85;;;;;;;2.04;100.00;102699.50;4994470;28;20514;-48
2023/03/02 10:37:23;;;;;;;24.67;14.90;;;;;;;2.04;100.00;102695.09;5001504;28;20705;-48
2023/03/02 10:39:50;;;;;;;20.45;13.43;;;;;;;1.77;100.00;102696.97;4998924;28;20265;-48
2023/03/02 10:42:39;;;;;;;20.80;13.23;;;;;;;1.73;100.00;102688.09;4993193;28;20686;-48
2023/03/02 10:45:15;;;;;;;19.27;12.88;;;;;;;1.80;100.00;102684.75;5002166;28;20687;-49
2023/03/02 10:47:41;;;;;;;19.08;11.90;;;;;;;1.69;100.00;102701.16;4997336;28;20181;-46
2023/03/02 10:50:22;;;;;;;19.73;12.43;;;;;;;1.71;100.00;102695.06;5000147;28;20188;-47
2023/03/02 10:52:49;;;;;;;19.38;13.77;;;;;;;1.71;100.00;102687.13;4996864;28;20525;-47
2023/03/02 10:55:15;;;;;;;20.30;14.07;;;;;;;1.77;100.00;102689.97;5003500;28;20181;-48
2023/03/02 10:57:43;;;;;;;19.23;13.35;;;;;;;1.87;100.00;102674.34;4997113;28;20687;-47
2023/03/02 11:00:21;;;;;;;19.83;12.55;;;;;;;1.85;100.00;102683.13;5002862;28;20185;-49
2023/03/02 11:02:59;;;;;;;17.33;12.85;;;;;;;2.03;100.00;102666.88;4998409;28;20204;-47
2023/03/02 11:05:36;;;;;;;18.55;12.98;;;;;;;2.15;100.00;102676.88;4997529;28;20592;-47
2023/03/02 11:08:08;;;;;;;16.75;12.02;;;;;;;2.30;100.00;102667.56;5001044;28;20283;-48
2023/03/02 11:10:40;;;;;;;17.50;11.43;;;;;;;2.23;100.00;102663.84;5000703;28;20186;-48
2023/03/02 11:13:19;;;;;;;14.85;11.75;;;;;;;2.19;100.00;102664.63;5001513;28;20204;-48
2023/03/02 11:15:50;;;;;;;31.83;12.40;;;;;;;2.30;100.00;102665.81;5005418;28;20204;-47
2023/03/02 11:18:15;;;;;;;15.15;10.98;;;;;;;2.46;100.00;102651.22;5001831;28;20644;-48
2023/03/02 11:20:44;;;;;;;19.00;12.85;;;;;;;2.40;100.00;102654.56;5003169;28;20243;-48